Gulnare, Colorado
Current Conditions -  °F | °C
As of 2:54 PM on Friday 28 Nov 2014 (Local Time) from KTAD Reporting Station
Clear Clear  
Wind Chill: 63°   Ceiling: Unl
Heat Index: 63°   Visibility: 10mi
Dew Point: 25°   Wind: 0mph
Humidity: 24%   Direction: NA
Pressure: 29.93"   Gusts: NA
Location:  37.32°N, 104.75°W
Report Text: KTAD 282154Z AUTO 00000KT 10SM CLR 17/M04 A2993 RMK AO2 SLP090 T01721039
Loading
Personal Weather Stations






























Interactive Weather Map New forecast layout! Learn more

10-Day Weather Forecast

Advertisements
Track Severe Weather on mobile